Time;durP1;ratioP1;P1;durP2;ratioP2;P2;SDS_P1;SDS_P2;PMS_P1;PMS_P2;Temp;Humidity;BMP_temperature;BMP_pressure;BME280_temperature;BME280_humidity;BME280_pressure;Samples;Min_cycle;Max_cycle;Signal;HPM_P1;HPM_P2
2023/09/07 00:01:25;;;;;;;;;;;;;;;16.89;92.52;96815.97;5108216;28;19957;-71
2023/09/07 00:03:51;;;;;;;;;;;;;;;16.84;93.13;96815.94;5089941;28;19973;-72
2023/09/07 00:06:17;;;;;;;;;;;;;;;16.80;93.08;96812.13;5108283;28;19948;-71
2023/09/07 00:08:43;;;;;;;;;;;;;;;16.77;93.17;96815.28;5089988;28;19953;-70
2023/09/07 00:11:09;;;;;;;;;;;;;;;16.73;93.59;96817.59;5090202;28;19942;-70
2023/09/07 00:13:35;;;;;;;;;;;;;;;16.70;93.26;96820.75;5108172;28;19960;-70
2023/09/07 00:16:02;;;;;;;;;;;;;;;16.68;93.33;96814.91;5107949;28;19958;-69
2023/09/07 00:18:28;;;;;;;;;;;;;;;16.67;93.56;96809.84;5108044;28;19972;-69
2023/09/07 00:20:54;;;;;;;;;;;;;;;16.65;93.84;96818.03;5107701;28;19959;-72
2023/09/07 00:23:20;;;;;;;;;;;;;;;16.63;94.31;96822.78;5107683;28;19964;-72
2023/09/07 00:25:46;;;;;;;;;;;;;;;16.62;93.52;96814.03;5107680;28;19962;-78
2023/09/07 00:28:12;;;;;;;;;;;;;;;16.61;93.98;96816.97;5089876;28;19961;-78
2023/09/07 00:30:39;;;;;;;;;;;;;;;16.59;94.01;96808.47;5089408;28;19970;-78
2023/09/07 00:33:05;;;;;;;;;;;;;;;16.58;94.36;96815.59;5107312;28;19949;-78
2023/09/07 00:35:31;;;;;;;;;;;;;;;16.58;94.53;96809.50;5107742;28;19972;-78
2023/09/07 00:37:56;;;;;;;;;;;;;;;16.55;94.47;96810.78;5107686;28;19958;-78
2023/09/07 00:40:22;;;;;;;;;;;;;;;16.53;94.48;96810.25;5107593;28;20218;-71
2023/09/07 00:42:48;;;;;;;;;;;;;;;16.51;95.00;96808.91;5107738;28;19960;-81
2023/09/07 00:45:15;;;;;;;;;;;;;;;16.47;94.97;96810.44;5107107;28;19954;-81
2023/09/07 00:47:41;;;;;;;;;;;;;;;16.43;95.40;96816.19;5089110;28;20209;-81
2023/09/07 00:50:07;;;;;;;;;;;;;;;16.41;95.73;96812.19;5089018;28;19965;-81
2023/09/07 00:52:33;;;;;;;;;;;;;;;16.38;95.90;96812.72;5107287;28;19952;-81
2023/09/07 00:55:01;;;;;;;;;;;;;;;16.35;95.65;96824.56;5106830;28;19959;-81
2023/09/07 00:57:27;;;;;;;;;;;;;;;16.32;96.34;96817.13;5106413;28;20035;-69
2023/09/07 00:59:53;;;;;;;;;;;;;;;16.28;96.67;96812.56;5089097;28;19962;-80
2023/09/07 01:02:19;;;;;;;;;;;;;;;16.23;97.02;96810.63;5106769;28;20141;-82
2023/09/07 01:04:45;;;;;;;;;;;;;;;16.20;96.27;96809.28;5107116;28;19980;-80
2023/09/07 01:07:17;;;;;;;;;;;;;;;16.17;97.21;96807.16;5107049;28;20143;-81
2023/09/07 01:09:44;;;;;;;;;;;;;;;16.13;97.35;96803.38;5106811;28;19938;-81
2023/09/07 01:12:14;;;;;;;;;;;;;;;16.10;97.67;96806.50;5106600;28;19984;-81
2023/09/07 01:14:39;;;;;;;;;;;;;;;16.07;97.74;96803.56;5107081;28;19950;-81
2023/09/07 01:17:06;;;;;;;;;;;;;;;16.03;98.12;96804.03;5106549;28;20293;-71
2023/09/07 01:19:33;;;;;;;;;;;;;;;16.00;97.88;96801.91;5106596;28;19965;-77
2023/09/07 01:22:00;;;;;;;;;;;;;;;15.98;98.56;96797.88;5106587;28;19954;-77
2023/09/07 01:24:28;;;;;;;;;;;;;;;15.95;98.95;96801.00;5088278;28;19964;-77
2023/09/07 01:26:54;;;;;;;;;;;;;;;15.92;97.64;96796.22;5106582;28;19959;-77
2023/09/07 01:29:20;;;;;;;;;;;;;;;15.88;98.85;96798.53;5106605;28;19949;-77
2023/09/07 01:31:47;;;;;;;;;;;;;;;15.85;98.56;96806.94;5106209;28;20249;-76
2023/09/07 01:34:14;;;;;;;;;;;;;;;15.80;99.79;96802.38;5106473;28;19967;-71
2023/09/07 01:36:40;;;;;;;;;;;;;;;15.78;99.98;96799.19;5106828;28;19948;-76
2023/09/07 01:39:08;;;;;;;;;;;;;;;15.75;99.21;96791.75;5106759;28;19955;-78
2023/09/07 01:41:34;;;;;;;;;;;;;;;15.72;99.46;96791.44;5088189;28;19959;-78
2023/09/07 01:44:00;;;;;;;;;;;;;;;15.70;99.96;96799.56;5106019;28;19972;-78
2023/09/07 01:46:26;;;;;;;;;;;;;;;15.64;100.00;96800.53;5106510;28;19952;-78
2023/09/07 01:48:52;;;;;;;;;;;;;;;15.61;100.00;96803.66;5106179;28;19967;-77
2023/09/07 01:51:18;;;;;;;;;;;;;;;15.58;100.00;96797.03;5105653;28;19950;-78
2023/09/07 01:53:46;;;;;;;;;;;;;;;15.57;99.78;96791.97;5106131;28;19954;-69
2023/09/07 01:56:12;;;;;;;;;;;;;;;15.54;100.00;96797.72;5106126;28;19960;-69
2023/09/07 01:58:38;;;;;;;;;;;;;;;15.51;99.99;96801.66;5106315;28;19957;-69
2023/09/07 02:01:04;;;;;;;;;;;;;;;15.49;100.00;96790.50;5106070;28;19955;-69
2023/09/07 02:03:30;;;;;;;;;;;;;;;15.46;100.00;96806.88;5105900;28;19990;-69
2023/09/07 02:05:56;;;;;;;;;;;;;;;15.46;100.00;96806.06;5088178;28;19937;-69
2023/09/07 02:08:22;;;;;;;;;;;;;;;15.42;100.00;96805.75;5105103;28;19953;-69
2023/09/07 02:10:48;;;;;;;;;;;;;;;15.37;100.00;96798.53;5105726;28;19953;-69
2023/09/07 02:13:13;;;;;;;;;;;;;;;15.31;100.00;96804.78;5105513;28;20246;-72
2023/09/07 02:15:40;;;;;;;;;;;;;;;15.26;100.00;96803.88;5105479;28;20024;-78
2023/09/07 02:18:06;;;;;;;;;;;;;;;15.21;100.00;96800.13;5087685;28;19950;-77
2023/09/07 02:20:32;;;;;;;;;;;;;;;15.19;100.00;96799.56;5087197;28;20320;-78
2023/09/07 02:22:58;;;;;;;;;;;;;;;15.17;100.00;96793.69;5105389;28;19959;-77
2023/09/07 02:25:24;;;;;;;;;;;;;;;15.14;100.00;96796.84;5105465;28;19956;-78
2023/09/07 02:27:49;;;;;;;;;;;;;;;15.12;100.00;96791.00;5087212;28;20008;-77
2023/09/07 02:30:15;;;;;;;;;;;;;;;15.10;100.00;96797.53;5105574;28;19964;-81
2023/09/07 02:32:42;;;;;;;;;;;;;;;15.07;100.00;96785.59;5105511;28;19956;-70
2023/09/07 02:35:08;;;;;;;;;;;;;;;15.05;100.00;96789.53;5086913;28;19954;-68
2023/09/07 02:37:35;;;;;;;;;;;;;;;15.03;100.00;96792.41;5087445;28;19962;-70
2023/09/07 02:40:01;;;;;;;;;;;;;;;15.00;100.00;96790.25;5105399;28;19950;-69
2023/09/07 02:42:27;;;;;;;;;;;;;;;14.97;100.00;96790.69;5105058;28;19963;-70
2023/09/07 02:44:53;;;;;;;;;;;;;;;14.93;100.00;96793.03;5105003;28;19947;-69
2023/09/07 02:47:19;;;;;;;;;;;;;;;14.89;100.00;96783.97;5086762;28;20157;-70
2023/09/07 02:49:45;;;;;;;;;;;;;;;14.86;100.00;96788.94;5104698;28;19950;-69
2023/09/07 02:52:10;;;;;;;;;;;;;;;14.84;100.00;96789.16;5086869;28;19959;-72
2023/09/07 02:54:36;;;;;;;;;;;;;;;14.82;100.00;96785.94;5105204;28;19960;-72
2023/09/07 02:57:02;;;;;;;;;;;;;;;14.79;100.00;96789.88;5105106;28;19951;-72
2023/09/07 02:59:28;;;;;;;;;;;;;;;14.78;100.00;96784.81;5105055;28;19971;-72
2023/09/07 03:01:54;;;;;;;;;;;;;;;14.76;100.00;96781.59;5105097;28;20249;-72
2023/09/07 03:04:20;;;;;;;;;;;;;;;14.74;100.00;96783.69;5104899;28;20088;-72
2023/09/07 03:06:45;;;;;;;;;;;;;;;14.70;100.00;96783.38;5105051;28;20016;-78
2023/09/07 03:09:11;;;;;;;;;;;;;;;14.68;100.00;96780.16;5087197;28;20237;-71
2023/09/07 03:11:37;;;;;;;;;;;;;;;14.67;100.00;96777.75;5104915;28;19964;-69
2023/09/07 03:14:03;;;;;;;;;;;;;;;14.66;100.00;96789.34;5104630;28;20121;-70
2023/09/07 03:16:30;;;;;;;;;;;;;;;14.64;100.00;96780.88;5104573;28;19956;-70
2023/09/07 03:18:55;;;;;;;;;;;;;;;14.61;100.00;96774.22;5108206;28;19957;-69
2023/09/07 03:21:25;;;;;;;;;;;;;;;14.57;100.00;96781.81;5111625;28;20292;-70
2023/09/07 03:23:52;;;;;;;;;;;;;;;14.55;100.00;96791.81;5111407;28;19956;-70
2023/09/07 03:26:18;;;;;;;;;;;;;;;14.53;100.00;96778.00;5093509;28;19955;-77
2023/09/07 03:28:43;;;;;;;;;;;;;;;14.51;100.00;96780.09;5093417;28;19963;-71
2023/09/07 03:31:10;;;;;;;;;;;;;;;14.50;100.00;96778.47;5111558;28;19966;-72
2023/09/07 03:33:35;;;;;;;;;;;;;;;14.48;100.00;96791.09;5111515;28;19952;-72
2023/09/07 03:36:03;;;;;;;;;;;;;;;14.46;100.00;96790.53;5111056;28;19956;-72
2023/09/07 03:38:29;;;;;;;;;;;;;;;14.44;100.00;96787.31;5111498;28;19956;-72
2023/09/07 03:40:55;;;;;;;;;;;;;;;14.41;100.00;96790.44;5111127;28;20228;-72
2023/09/07 03:43:21;;;;;;;;;;;;;;;14.40;100.00;96783.53;5111492;28;19968;-76
2023/09/07 03:45:47;;;;;;;;;;;;;;;14.38;100.00;96788.25;5111152;28;19957;-71
2023/09/07 03:48:13;;;;;;;;;;;;;;;14.36;100.00;96788.50;5110852;28;19963;-82
2023/09/07 03:50:38;;;;;;;;;;;;;;;14.35;100.00;96788.72;5111525;28;19959;-82
2023/09/07 03:53:04;;;;;;;;;;;;;;;14.31;100.00;96785.75;5111213;28;20024;-82
2023/09/07 03:55:39;;;;;;;;;;;;;;;14.27;100.00;96779.31;5111174;28;20243;-82
2023/09/07 03:58:05;;;;;;;;;;;;;;;14.26;100.00;96784.81;5111263;28;19961;-82
2023/09/07 04:00:31;;;;;;;;;;;;;;;14.22;100.00;96784.50;5111269;28;19949;-82
2023/09/07 04:02:57;;;;;;;;;;;;;;;14.17;100.00;96782.56;5110711;28;19938;-82
2023/09/07 04:05:22;;;;;;;;;;;;;;;14.15;100.00;96792.56;5092769;28;20330;-82
2023/09/07 04:07:50;;;;;;;;;;;;;;;14.12;100.00;96786.94;5111479;28;19950;-83
2023/09/07 04:10:16;;;;;;;;;;;;;;;14.10;100.00;96789.78;5111407;28;19960;-82
2023/09/07 04:12:41;;;;;;;;;;;;;;;14.07;100.00;96785.00;5111134;28;20020;-82
2023/09/07 04:15:08;;;;;;;;;;;;;;;14.03;100.00;96778.56;5092612;28;19957;-81
2023/09/07 04:17:40;;;;;;;;;;;;;;;14.01;100.00;96781.44;5111108;28;20168;-82
2023/09/07 04:20:07;;;;;;;;;;;;;;;14.01;100.00;96778.00;5111212;28;19952;-72
2023/09/07 04:22:33;;;;;;;;;;;;;;;13.99;100.00;96791.41;5111202;28;19965;-81
2023/09/07 04:24:58;;;;;;;;;;;;;;;13.95;100.00;96787.63;5092212;28;19962;-76
2023/09/07 04:27:25;;;;;;;;;;;;;;;13.92;100.00;96780.19;5111034;28;20005;-75
2023/09/07 04:29:51;;;;;;;;;;;;;;;13.92;100.00;96788.09;5109035;28;19948;-75
2023/09/07 04:32:17;;;;;;;;;;;;;;;13.92;100.00;96779.38;5107313;28;19940;-75
2023/09/07 04:34:43;;;;;;;;;;;;;;;13.89;100.00;96778.00;5107781;28;19962;-75
2023/09/07 04:37:09;;;;;;;;;;;;;;;13.87;100.00;96766.09;5106693;28;20010;-75
2023/09/07 04:39:34;;;;;;;;;;;;;;;13.87;100.00;96784.53;5107294;28;19963;-81
2023/09/07 04:42:01;;;;;;;;;;;;;;;13.84;100.00;96780.53;5107412;28;19954;-75
2023/09/07 04:44:28;;;;;;;;;;;;;;;13.83;100.00;96781.56;5107177;28;19967;-75
2023/09/07 04:46:56;;;;;;;;;;;;;;;13.81;100.00;96771.22;5107249;28;19986;-75
2023/09/07 04:49:26;;;;;;;;;;;;;;;13.81;100.00;96770.44;5107546;28;19956;-75
2023/09/07 04:51:55;;;;;;;;;;;;;;;13.81;100.00;96778.34;5107548;28;19959;-75
2023/09/07 04:54:20;;;;;;;;;;;;;;;13.80;100.00;96789.94;5107410;28;19962;-76
2023/09/07 04:56:46;;;;;;;;;;;;;;;13.77;100.00;96790.38;5107306;28;19957;-72
2023/09/07 04:59:12;;;;;;;;;;;;;;;13.73;100.00;96783.97;5106763;28;19949;-81
2023/09/07 05:01:38;;;;;;;;;;;;;;;13.70;100.00;96779.16;5106763;28;19959;-79
2023/09/07 05:04:04;;;;;;;;;;;;;;;13.68;100.00;96784.66;5107331;28;19940;-78
2023/09/07 05:06:30;;;;;;;;;;;;;;;13.66;100.00;96778.81;5106740;28;19955;-78
2023/09/07 05:08:55;;;;;;;;;;;;;;;13.65;100.00;96787.75;5107240;28;20021;-78
2023/09/07 05:11:21;;;;;;;;;;;;;;;13.64;100.00;96786.16;5106750;28;19956;-78
2023/09/07 05:13:47;;;;;;;;;;;;;;;13.64;100.00;96786.16;5088543;28;19958;-78
2023/09/07 05:16:13;;;;;;;;;;;;;;;13.65;100.00;96800.13;5107105;28;20113;-72
2023/09/07 05:18:40;;;;;;;;;;;;;;;13.60;100.00;96787.63;5106759;28;19951;-69
2023/09/07 05:21:13;;;;;;;;;;;;;;;13.58;100.00;96798.41;5088536;28;20165;-69
2023/09/07 05:23:38;;;;;;;;;;;;;;;13.60;100.00;96791.06;5106771;28;19958;-69
2023/09/07 05:26:04;;;;;;;;;;;;;;;13.81;100.00;96787.06;5106222;28;20025;-70
2023/09/07 05:28:30;;;;;;;;;;;;;;;14.17;100.00;96781.75;5106945;28;19949;-69
2023/09/07 05:30:56;;;;;;;;;;;;;;;14.57;100.00;96779.19;5106235;28;20021;-69
2023/09/07 05:33:22;;;;;;;;;;;;;;;15.02;100.00;96770.47;5106365;28;19954;-70
2023/09/07 05:35:48;;;;;;;;;;;;;;;15.46;100.00;96761.94;5106299;28;20020;-83
2023/09/07 05:38:13;;;;;;;;;;;;;;;15.86;99.97;96755.66;5106532;28;19967;-75
2023/09/07 05:40:41;;;;;;;;;;;;;;;16.22;98.20;96750.84;5106319;28;19954;-76
2023/09/07 05:43:07;;;;;;;;;;;;;;;16.56;96.86;96745.41;5105598;28;19962;-75
2023/09/07 05:45:37;;;;;;;;;;;;;;;16.89;95.44;96741.00;5106476;28;19965;-75
2023/09/07 05:48:03;;;;;;;;;;;;;;;17.18;94.17;96739.66;5088196;28;20012;-76
2023/09/07 05:50:29;;;;;;;;;;;;;;;17.44;92.77;96745.16;5106177;28;20226;-76
2023/09/07 05:52:55;;;;;;;;;;;;;;;17.66;92.02;96731.81;5106285;28;20000;-77
2023/09/07 05:55:21;;;;;;;;;;;;;;;17.89;90.47;96716.53;5106127;28;19950;-76
2023/09/07 05:57:48;;;;;;;;;;;;;;;18.02;88.77;96710.78;5105734;28;19984;-76
2023/09/07 06:00:16;;;;;;;;;;;;;;;18.15;88.72;96717.47;5106334;28;19958;-75
2023/09/07 06:02:43;;;;;;;;;;;;;;;18.32;87.85;96722.59;5105588;28;19961;-76
2023/09/07 06:05:09;;;;;;;;;;;;;;;18.44;87.40;96718.63;5105616;28;19965;-75
2023/09/07 06:07:36;;;;;;;;;;;;;;;18.58;86.84;96712.81;5105622;28;20118;-76
2023/09/07 06:10:02;;;;;;;;;;;;;;;18.68;86.79;96712.84;5105780;28;19959;-76
2023/09/07 06:12:27;;;;;;;;;;;;;;;18.78;86.80;96720.88;5087369;28;19998;-76
2023/09/07 06:14:53;;;;;;;;;;;;;;;18.85;87.04;96717.94;5105681;28;20163;-72
2023/09/07 06:17:19;;;;;;;;;;;;;;;18.93;86.77;96712.13;5105686;28;20144;-73
2023/09/07 06:19:45;;;;;;;;;;;;;;;18.98;86.54;96712.13;5105682;28;19959;-72
2023/09/07 06:22:11;;;;;;;;;;;;;;;19.04;86.18;96705.72;5105691;28;19961;-72
2023/09/07 06:24:37;;;;;;;;;;;;;;;19.09;85.55;96701.47;5105475;28;19970;-72
2023/09/07 06:27:03;;;;;;;;;;;;;;;19.11;85.61;96713.47;5105808;28;19940;-72
2023/09/07 06:29:29;;;;;;;;;;;;;;;19.15;85.57;96706.56;5105320;28;20241;-78
2023/09/07 06:31:55;;;;;;;;;;;;;;;19.19;85.94;96710.28;5087430;28;19966;-83
2023/09/07 06:34:20;;;;;;;;;;;;;;;19.25;86.14;96711.84;5105368;28;20004;-83
2023/09/07 06:36:46;;;;;;;;;;;;;;;19.20;85.15;96705.75;5105130;28;19961;-82
2023/09/07 06:39:12;;;;;;;;;;;;;;;19.14;86.03;96718.22;5105065;28;19962;-82
2023/09/07 06:41:38;;;;;;;;;;;;;;;19.13;86.13;96716.66;5105069;28;19964;-82
2023/09/07 06:44:04;;;;;;;;;;;;;;;19.16;85.51;96720.63;5104987;28;19964;-83
2023/09/07 06:46:29;;;;;;;;;;;;;;;19.08;84.93;96724.59;5105059;28;20262;-83
2023/09/07 06:48:55;;;;;;;;;;;;;;;18.98;85.96;96728.06;5105137;28;19962;-71
2023/09/07 06:51:21;;;;;;;;;;;;;;;18.99;86.23;96737.63;5086951;28;19962;-76
2023/09/07 06:53:47;;;;;;;;;;;;;;;18.93;86.77;96738.69;5104617;28;19955;-76
2023/09/07 06:56:13;;;;;;;;;;;;;;;18.92;87.78;96747.72;5104614;28;19946;-75
2023/09/07 06:58:39;;;;;;;;;;;;;;;18.98;87.57;96745.88;5105318;28;20266;-76
2023/09/07 07:01:05;;;;;;;;;;;;;;;19.02;88.24;96757.56;5104811;28;20019;-75
2023/09/07 07:03:31;;;;;;;;;;;;;;;19.06;88.53;96755.97;5104482;28;19951;-75
2023/09/07 07:05:57;;;;;;;;;;;;;;;19.09;89.78;96754.63;5104685;28;19971;-75
2023/09/07 07:08:23;;;;;;;;;;;;;;;19.20;89.23;96754.41;5104681;28;20026;-83
2023/09/07 07:10:49;;;;;;;;;;;;;;;19.31;88.20;96749.09;5104706;28;20002;-75
2023/09/07 07:13:15;;;;;;;;;;;;;;;19.34;87.87;96744.03;5104729;28;19957;-75
2023/09/07 07:15:41;;;;;;;;;;;;;;;19.42;88.63;96763.97;5104629;28;19954;-76
2023/09/07 07:18:10;;;;;;;;;;;;;;;19.57;88.36;96763.16;5104635;28;19962;-75
2023/09/07 07:20:40;;;;;;;;;;;;;;;19.68;87.82;96754.91;5104747;28;20213;-75
2023/09/07 07:23:06;;;;;;;;;;;;;;;19.81;87.36;96750.13;5104254;28;19960;-76
2023/09/07 07:25:33;;;;;;;;;;;;;;;19.92;88.53;96753.56;5104899;28;19963;-70
2023/09/07 07:28:05;;;;;;;;;;;;;;;20.01;87.95;96754.59;5105053;28;19959;-69
2023/09/07 07:30:31;;;;;;;;;;;;;;;20.10;86.33;96734.34;5104386;28;19966;-69
2023/09/07 07:32:57;;;;;;;;;;;;;;;20.17;88.90;96756.13;5104425;28;19957;-69
2023/09/07 07:35:23;;;;;;;;;;;;;;;20.31;86.11;96736.94;5104356;28;20012;-69
2023/09/07 07:37:50;;;;;;;;;;;;;;;20.41;85.48;96735.03;5086713;28;19988;-69
2023/09/07 07:40:15;;;;;;;;;;;;;;;20.48;83.93;96724.84;5104467;28;19957;-69
2023/09/07 07:42:41;;;;;;;;;;;;;;;20.53;83.25;96718.69;5104491;28;19998;-73
2023/09/07 07:45:08;;;;;;;;;;;;;;;20.65;87.15;96742.38;5104458;28;19963;-82
2023/09/07 07:47:33;;;;;;;;;;;;;;;20.76;84.87;96727.91;5104568;28;19977;-72
2023/09/07 07:49:59;;;;;;;;;;;;;;;20.93;82.88;96713.41;5104643;28;20223;-72
2023/09/07 07:52:27;;;;;;;;;;;;;;;20.97;81.90;96711.78;5103518;28;20333;-73
2023/09/07 07:54:53;;;;;;;;;;;;;;;20.97;82.43;96715.25;5104336;28;19968;-72
2023/09/07 07:57:19;;;;;;;;;;;;;;;20.90;82.68;96713.97;5104281;28;20057;-72
2023/09/07 07:59:44;;;;;;;;;;;;;;;20.87;83.79;96728.63;5104071;28;19957;-72
2023/09/07 08:02:10;;;;;;;;;;;;;;;20.94;87.47;96752.34;5104704;28;19959;-80
2023/09/07 08:04:36;;;;;;;;;;;;;;;21.04;84.78;96729.06;5104092;28;19967;-76
2023/09/07 08:07:03;;;;;;;;;;;;;;;21.13;83.62;96723.94;5108006;28;19997;-77
2023/09/07 08:09:30;;;;;;;;;;;;;;;21.13;84.52;96728.47;5107873;28;19964;-76
2023/09/07 08:11:56;;;;;;;;;;;;;;;21.14;87.21;96757.53;5108033;28;19953;-76
2023/09/07 08:14:25;;;;;;;;;;;;;;;21.24;84.58;96729.97;5108009;28;20262;-77
2023/09/07 08:16:53;;;;;;;;;;;;;;;21.34;84.31;96729.91;5108186;28;19964;-76
2023/09/07 08:19:19;;;;;;;;;;;;;;;21.39;84.31;96729.84;5108001;28;19962;-70
2023/09/07 08:21:46;;;;;;;;;;;;;;;21.41;83.94;96729.56;5107564;28;19948;-73
2023/09/07 08:24:12;;;;;;;;;;;;;;;21.41;84.21;96726.91;5107650;28;19972;-72
2023/09/07 08:26:38;;;;;;;;;;;;;;;21.47;83.93;96725.81;5107892;28;19952;-72
2023/09/07 08:29:08;;;;;;;;;;;;;;;21.55;84.71;96727.09;5107507;28;20261;-73
2023/09/07 08:31:34;;;;;;;;;;;;;;;21.69;85.16;96728.81;5107478;28;19966;-72
2023/09/07 08:34:02;;;;;;;;;;;;;;;21.78;84.26;96731.66;5107372;28;19957;-72
2023/09/07 08:36:29;;;;;;;;;;;;;;;21.76;81.93;96714.34;5107492;28;19963;-73
2023/09/07 08:38:55;;;;;;;;;;;;;;;21.80;83.66;96723.38;5107100;28;19969;-81
2023/09/07 08:41:21;;;;;;;;;;;;;;;21.87;83.00;96715.81;5107635;28;19968;-70
2023/09/07 08:43:49;;;;;;;;;;;;;;;22.00;83.64;96725.81;5089257;28;19971;-69
2023/09/07 08:46:17;;;;;;;;;;;;;;;22.04;80.02;96702.78;5107558;28;19978;-70
2023/09/07 08:48:46;;;;;;;;;;;;;;;22.11;83.70;96723.81;5107453;28;19964;-70
2023/09/07 08:51:14;;;;;;;;;;;;;;;22.25;83.79;96730.09;5107717;28;19961;-69
2023/09/07 08:53:41;;;;;;;;;;;;;;;22.36;84.78;96736.09;5106909;28;19958;-69
2023/09/07 08:56:10;;;;;;;;;;;;;;;22.48;81.86;96716.97;5107532;28;19956;-81
2023/09/07 08:58:36;;;;;;;;;;;;;;;22.55;82.36;96719.28;5107026;28;19956;-70
2023/09/07 09:01:03;;;;;;;;;;;;;;;22.63;84.61;96734.69;5107159;28;19961;-71
2023/09/07 09:03:30;;;;;;;;;;;;;;;22.67;82.30;96715.09;5106980;28;19962;-70
2023/09/07 09:05:56;;;;;;;;;;;;;;;22.74;83.02;96720.13;5107184;28;19962;-70
2023/09/07 09:08:24;;;;;;;;;;;;;;;22.78;83.77;96734.47;5107272;28;19986;-70
2023/09/07 09:11:10;;;;;;;;;;;;;;;22.78;81.84;96714.97;5107061;28;19956;-70
2023/09/07 09:13:36;;;;;;;;;;;;;;;22.74;82.11;96717.44;5105688;28;19955;-70
2023/09/07 09:16:02;;;;;;;;;;;;;;;22.70;82.68;96717.22;5106111;28;19956;-80
2023/09/07 09:18:28;;;;;;;;;;;;;;;22.69;83.24;96730.84;5106508;28;19958;-82
2023/09/07 09:20:55;;;;;;;;;;;;;;;22.68;82.95;96719.38;5106550;28;19981;-81
2023/09/07 09:23:20;;;;;;;;;;;;;;;22.72;83.07;96721.47;5106276;28;19976;-81
2023/09/07 09:25:49;;;;;;;;;;;;;;;22.68;81.09;96715.91;5106436;28;20040;-81
2023/09/07 09:28:15;;;;;;;;;;;;;;;22.66;81.80;96713.53;5106735;28;19975;-80
2023/09/07 09:30:43;;;;;;;;;;;;;;;22.68;83.72;96722.06;5088408;28;20002;-81
2023/09/07 09:33:09;;;;;;;;;;;;;;;22.69;84.05;96725.50;5106792;28;19959;-69
2023/09/07 09:35:38;;;;;;;;;;;;;;;22.70;82.21;96714.53;5106563;28;19967;-72
2023/09/07 09:38:04;;;;;;;;;;;;;;;22.70;82.31;96721.78;5106638;28;20249;-71
2023/09/07 09:40:31;;;;;;;;;;;;;;;22.68;84.50;96732.75;5105963;28;19941;-70
2023/09/07 09:42:57;;;;;;;;;;;;;;;22.73;83.78;96718.50;5106030;28;19956;-70
2023/09/07 09:45:23;;;;;;;;;;;;;;;22.78;85.58;96733.69;5088431;28;19965;-71
2023/09/07 09:47:50;;;;;;;;;;;;;;;22.84;82.59;96719.16;5106365;28;19963;-70
2023/09/07 09:50:16;;;;;;;;;;;;;;;22.86;85.04;96733.03;5106254;28;19958;-69
2023/09/07 09:52:42;;;;;;;;;;;;;;;22.88;83.94;96722.84;5105739;28;19965;-70
2023/09/07 09:55:12;;;;;;;;;;;;;;;22.90;83.29;96715.31;5106214;28;19956;-70
2023/09/07 09:57:38;;;;;;;;;;;;;;;22.89;84.12;96725.22;5105963;28;19967;-70
2023/09/07 10:00:38;;;;;;;;;;;;;;;22.96;85.50;96729.41;5106009;28;20136;-70
2023/09/07 10:03:15;;;;;;;;;;;;;;;23.02;85.23;96726.41;5101812;28;20153;-70
2023/09/07 10:05:43;;;;;;;;;;;;;;;23.07;83.27;96714.81;5105720;28;20167;-70
2023/09/07 10:08:12;;;;;;;;;;;;;;;23.12;84.89;96717.44;5106179;28;19956;-70
2023/09/07 10:10:38;;;;;;;;;;;;;;;23.16;83.14;96717.63;5106037;28;19958;-79
2023/09/07 10:13:05;;;;;;;;;;;;;;;23.20;83.79;96719.41;5105346;28;20138;-73
2023/09/07 10:15:31;;;;;;;;;;;;;;;23.27;82.98;96711.03;5105914;28;19963;-72
2023/09/07 10:18:04;;;;;;;;;;;;;;;23.32;82.52;96710.16;5105846;28;19964;-72
2023/09/07 10:20:34;;;;;;;;;;;;;;;23.41;83.94;96719.09;5105599;28;19959;-72
2023/09/07 10:23:03;;;;;;;;;;;;;;;23.53;83.44;96711.38;5105742;28;19964;-73
2023/09/07 10:25:30;;;;;;;;;;;;;;;23.68;84.56;96716.44;5105555;28;19972;-72
2023/09/07 10:27:56;;;;;;;;;;;;;;;23.84;83.22;96702.81;5104807;28;19963;-70
2023/09/07 10:30:24;;;;;;;;;;;;;;;24.00;83.01;96706.00;5105238;28;20225;-79
2023/09/07 10:32:49;;;;;;;;;;;;;;;24.16;81.70;96693.88;5105386;28;19976;-82
2023/09/07 10:35:16;;;;;;;;;;;;;;;24.33;82.72;96695.94;5105308;28;19975;-80
2023/09/07 10:37:48;;;;;;;;;;;;;;;24.52;81.25;96677.84;5105108;28;19962;-80
2023/09/07 10:40:21;;;;;;;;;;;;;;;24.68;80.11;96682.88;5105184;28;19977;-82
2023/09/07 10:42:47;;;;;;;;;;;;;;;24.73;78.83;96669.34;5105429;28;20221;-80
2023/09/07 10:45:16;;;;;;;;;;;;;;;24.88;80.77;96685.09;5105246;28;19966;-80
2023/09/07 10:47:43;;;;;;;;;;;;;;;25.06;80.20;96682.53;5105314;28;19960;-70
2023/09/07 10:50:13;;;;;;;;;;;;;;;25.26;80.34;96681.25;5105181;28;19955;-73
2023/09/07 10:52:40;;;;;;;;;;;;;;;25.46;77.62;96674.59;5104974;28;19943;-73
2023/09/07 10:55:06;;;;;;;;;;;;;;;25.60;77.31;96669.13;5105222;28;19959;-73
2023/09/07 10:57:31;;;;;;;;;;;;;;;25.76;77.10;96667.59;5104694;28;19953;-73
2023/09/07 10:59:57;;;;;;;;;;;;;;;25.90;74.90;96667.53;5104788;28;20153;-73
2023/09/07 11:02:23;;;;;;;;;;;;;;;25.94;74.74;96663.13;5104835;28;19961;-72
2023/09/07 11:04:49;;;;;;;;;;;;;;;26.06;75.63;96657.13;5104700;28;19972;-81
2023/09/07 11:07:15;;;;;;;;;;;;;;;26.24;78.49;96669.50;5104854;28;19950;-70
2023/09/07 11:09:41;;;;;;;;;;;;;;;26.42;73.80;96650.72;5105162;28;19954;-77
2023/09/07 11:12:08;;;;;;;;;;;;;;;26.53;74.87;96651.97;5104881;28;19965;-78
2023/09/07 11:14:34;;;;;;;;;;;;;;;26.67;75.61;96666.09;5104879;28;19962;-78
2023/09/07 11:17:03;;;;;;;;;;;;;;;26.84;75.10;96664.53;5104928;28;20280;-78
2023/09/07 11:19:32;;;;;;;;;;;;;;;27.05;74.55;96653.88;5105000;28;19960;-78
2023/09/07 11:21:57;;;;;;;;;;;;;;;27.16;72.78;96649.75;5104405;28;19957;-78
2023/09/07 11:24:24;;;;;;;;;;;;;;;27.26;71.67;96641.34;5104849;28;19971;-77
2023/09/07 11:26:50;;;;;;;;;;;;;;;27.37;75.38;96657.16;5105049;28;19978;-80
2023/09/07 11:29:16;;;;;;;;;;;;;;;27.50;72.66;96650.78;5105334;28;20210;-80
2023/09/07 11:31:45;;;;;;;;;;;;;;;27.55;73.51;96653.31;5104477;28;19962;-80
2023/09/07 11:34:12;;;;;;;;;;;;;;;27.64;72.06;96650.56;5104498;28;20137;-80
2023/09/07 11:36:39;;;;;;;;;;;;;;;27.79;73.79;96662.72;5104484;28;20238;-80
2023/09/07 11:39:11;;;;;;;;;;;;;;;27.97;72.14;96645.38;5105014;28;19956;-81
2023/09/07 11:41:38;;;;;;;;;;;;;;;28.16;70.68;96646.81;5108805;28;19957;-80
2023/09/07 11:44:04;;;;;;;;;;;;;;;28.30;71.33;96642.75;5108283;28;19955;-73
2023/09/07 11:46:30;;;;;;;;;;;;;;;28.41;71.13;96642.38;5108585;28;20002;-73
2023/09/07 11:48:56;;;;;;;;;;;;;;;28.52;69.55;96636.31;5108965;28;20129;-72
2023/09/07 11:51:22;;;;;;;;;;;;;;;28.65;69.64;96631.75;5108252;28;19958;-72
2023/09/07 11:53:49;;;;;;;;;;;;;;;28.71;70.51;96643.13;5108125;28;19952;-72
2023/09/07 11:56:15;;;;;;;;;;;;;;;28.82;70.49;96638.91;5108233;28;19954;-72
2023/09/07 11:58:42;;;;;;;;;;;;;;;28.80;67.46;96633.03;5108127;28;20253;-73
2023/09/07 12:01:08;;;;;;;;;;;;;;;28.78;70.03;96643.38;5108221;28;20231;-77
2023/09/07 12:03:34;;;;;;;;;;;;;;;28.85;69.07;96635.56;5107872;28;19951;-71
2023/09/07 12:06:00;;;;;;;;;;;;;;;28.86;67.04;96634.41;5108117;28;19964;-70
2023/09/07 12:08:26;;;;;;;;;;;;;;;28.72;66.85;96631.22;5108215;28;20027;-72
2023/09/07 12:10:52;;;;;;;;;;;;;;;28.65;66.35;96629.03;5108303;28;19956;-70
2023/09/07 12:13:18;;;;;;;;;;;;;;;28.58;69.55;96642.28;5108173;28;19984;-70
2023/09/07 12:15:44;;;;;;;;;;;;;;;28.66;69.96;96633.31;5108040;28;19956;-71
2023/09/07 12:18:09;;;;;;;;;;;;;;;28.69;67.16;96629.97;5108344;28;20081;-70
2023/09/07 12:20:35;;;;;;;;;;;;;;;28.74;69.94;96645.16;5108260;28;19965;-70
2023/09/07 12:23:02;;;;;;;;;;;;;;;28.87;69.55;96638.72;5107502;28;19950;-79
2023/09/07 12:25:28;;;;;;;;;;;;;;;28.98;68.43;96628.28;5107510;28;19969;-79
2023/09/07 12:27:54;;;;;;;;;;;;;;;28.94;65.95;96633.53;5107945;28;19964;-79
2023/09/07 12:30:20;;;;;;;;;;;;;;;28.99;69.06;96635.25;5107645;28;20028;-78
2023/09/07 12:32:46;;;;;;;;;;;;;;;28.96;66.75;96625.13;5107610;28;20178;-79
2023/09/07 12:35:12;;;;;;;;;;;;;;;28.97;68.79;96636.69;5107739;28;19971;-78
2023/09/07 12:37:38;;;;;;;;;;;;;;;28.94;68.25;96638.94;5107692;28;20000;-80
2023/09/07 12:40:14;;;;;;;;;;;;;;;28.99;69.58;96637.94;5107715;28;19952;-73